Time;durP1;ratioP1;P1;durP2;ratioP2;P2;SDS_P1;SDS_P2;PMS_P1;PMS_P2;Temp;Humidity;BMP_temperature;BMP_pressure;BME280_temperature;BME280_humidity;BME280_pressure;Samples;Min_cycle;Max_cycle;Signal;HPM_P1;HPM_P2
2022/07/28 04:01:02;;;;;;;1.97;1.70;;;18.00;93.90;;;;;;5682244;23;20481;-63
2022/07/28 04:03:30;;;;;;;2.77;2.00;;;18.00;94.10;;;;;;4977206;28;20454;-63
2022/07/28 04:05:57;;;;;;;2.27;2.07;;;18.00;94.40;;;;;;4976784;28;20988;-62
2022/07/28 04:08:24;;;;;;;4.20;2.17;;;17.90;94.30;;;;;;4977547;28;20462;-62
2022/07/28 04:10:52;;;;;;;1.80;1.70;;;18.00;94.40;;;;;;4976443;28;20479;-63
2022/07/28 04:13:19;;;;;;;2.30;2.07;;;18.00;94.40;;;;;;4976678;28;21016;-62
2022/07/28 04:15:46;;;;;;;6.30;2.07;;;18.00;94.50;;;;;;4976453;28;20814;-63
2022/07/28 04:18:14;;;;;;;5.43;1.97;;;18.00;94.60;;;;;;4976132;28;20941;-63
2022/07/28 04:20:41;;;;;;;4.63;2.33;;;18.00;94.80;;;;;;4976472;28;20470;-63
2022/07/28 04:23:07;;;;;;;4.50;2.30;;;18.00;95.10;;;;;;4976447;28;20873;-62
2022/07/28 04:25:34;;;;;;;2.13;1.90;;;18.00;95.20;;;;;;4976564;28;20529;-63
2022/07/28 04:28:01;;;;;;;1.87;1.77;;;18.00;95.20;;;;;;4976543;28;20466;-63
2022/07/28 04:30:28;;;;;;;7.00;1.87;;;18.00;95.40;;;;;;4976339;28;20478;-63
2022/07/28 04:32:55;;;;;;;2.80;1.90;;;18.00;95.40;;;;;;4976459;28;20458;-63
2022/07/28 04:35:26;;;;;;;2.10;1.90;;;18.00;95.60;;;;;;4976328;28;20549;-62
2022/07/28 04:37:54;;;;;;;2.47;1.90;;;18.00;95.50;;;;;;4976405;28;20486;-63
2022/07/28 04:40:21;;;;;;;3.07;1.97;;;18.10;95.60;;;;;;4976056;28;21012;-63
2022/07/28 04:42:48;;;;;;;5.70;2.53;;;18.10;95.60;;;;;;4976151;28;20563;-63
2022/07/28 04:45:15;;;;;;;2.33;1.90;;;18.30;95.70;;;;;;4975986;28;20454;-63
2022/07/28 04:47:42;;;;;;;2.50;2.03;;;18.30;95.70;;;;;;4976244;28;20462;-63
2022/07/28 04:50:11;;;;;;;4.13;2.30;;;18.40;95.50;;;;;;4978756;28;20822;-63
2022/07/28 04:52:39;;;;;;;2.97;2.10;;;18.40;95.60;;;;;;4977808;28;20497;-63
2022/07/28 04:55:07;;;;;;;2.10;1.83;;;18.50;95.70;;;;;;4976546;28;20526;-66
2022/07/28 04:57:34;;;;;;;2.30;1.87;;;18.60;99.80;;;;;;4975957;28;20462;-64
2022/07/28 05:00:01;;;;;;;2.60;1.90;;;18.70;99.90;;;;;;4975895;28;20462;-64
2022/07/28 05:02:28;;;;;;;4.40;2.50;;;18.90;99.90;;;;;;4975519;28;21052;-65
2022/07/28 05:04:54;;;;;;;2.20;2.00;;;19.00;99.00;;;;;;4976000;28;20468;-65
2022/07/28 05:07:21;;;;;;;3.13;1.90;;;19.10;98.50;;;;;;4975900;28;20466;-65
2022/07/28 05:09:49;;;;;;;4.17;2.30;;;19.20;97.40;;;;;;4975677;28;20455;-65
2022/07/28 05:12:16;;;;;;;2.83;1.90;;;19.30;97.90;;;;;;4975534;28;20489;-65
2022/07/28 05:14:43;;;;;;;6.47;1.93;;;19.30;97.70;;;;;;4975589;28;20466;-65
2022/07/28 05:17:09;;;;;;;2.63;2.33;;;19.30;96.70;;;;;;4975519;28;20598;-66
2022/07/28 05:19:36;;;;;;;2.40;2.10;;;19.40;96.50;;;;;;4975722;28;20455;-64
2022/07/28 05:22:03;;;;;;;5.43;2.60;;;19.40;96.50;;;;;;4975507;28;20475;-64
2022/07/28 05:24:29;;;;;;;4.70;2.10;;;19.50;95.10;;;;;;4975488;28;20462;-64
2022/07/28 05:26:58;;;;;;;7.37;2.90;;;19.50;94.60;;;;;;4975450;28;20510;-64
2022/07/28 05:29:25;;;;;;;6.40;2.50;;;19.50;94.80;;;;;;4975506;28;20459;-64
2022/07/28 05:31:51;;;;;;;4.63;2.50;;;19.60;94.60;;;;;;4975236;28;20847;-64
2022/07/28 05:34:18;;;;;;;2.20;2.10;;;19.60;94.10;;;;;;4975371;28;20465;-63
2022/07/28 05:36:45;;;;;;;6.90;4.10;;;19.70;94.40;;;;;;4975285;28;20553;-63
2022/07/28 05:39:12;;;;;;;2.50;2.20;;;19.80;94.30;;;;;;4975034;28;20946;-63
2022/07/28 05:41:38;;;;;;;6.97;3.83;;;20.00;94.00;;;;;;4975161;28;20475;-64
2022/07/28 05:44:06;;;;;;;3.37;3.07;;;20.30;93.90;;;;;;4975185;28;20510;-64
2022/07/28 05:46:33;;;;;;;3.73;2.70;;;20.50;92.90;;;;;;4974841;28;20946;-64
2022/07/28 05:49:00;;;;;;;8.90;2.63;;;20.70;92.50;;;;;;4974508;28;20462;-64
2022/07/28 05:51:27;;;;;;;5.53;2.80;;;20.60;92.30;;;;;;4974578;28;21012;-65
2022/07/28 05:53:53;;;;;;;7.10;4.17;;;20.60;92.40;;;;;;4976800;28;20976;-64
2022/07/28 05:56:21;;;;;;;5.23;2.80;;;20.60;92.40;;;;;;4977803;28;20459;-64
2022/07/28 05:58:48;;;;;;;3.87;2.80;;;20.60;92.70;;;;;;4976233;28;20815;-64
2022/07/28 06:01:16;;;;;;;3.70;2.43;;;20.70;92.50;;;;;;4975208;28;20489;-63
2022/07/28 06:03:43;;;;;;;9.40;2.80;;;20.70;92.70;;;;;;4975519;28;20458;-63
2022/07/28 06:06:10;;;;;;;5.83;2.60;;;20.70;92.80;;;;;;4975031;28;20934;-63
2022/07/28 06:08:37;;;;;;;7.20;3.17;;;20.80;93.00;;;;;;4974990;28;20462;-63
2022/07/28 06:11:10;;;;;;;2.83;2.63;;;21.00;92.90;;;;;;4974712;28;20499;-64
2022/07/28 06:13:37;;;;;;;3.50;2.80;;;21.20;93.30;;;;;;4974711;28;20910;-63
2022/07/28 06:16:04;;;;;;;6.97;3.80;;;21.30;93.30;;;;;;4974997;28;20465;-63
2022/07/28 06:18:32;;;;;;;7.90;2.77;;;21.40;92.50;;;;;;4974836;28;20487;-65
2022/07/28 06:20:59;;;;;;;5.70;3.00;;;21.60;92.20;;;;;;4974767;28;20486;-62
2022/07/28 06:23:26;;;;;;;6.30;3.20;;;21.70;92.10;;;;;;4974953;28;20454;-64
2022/07/28 06:25:53;;;;;;;7.10;2.80;;;21.80;91.70;;;;;;4975164;28;20938;-64
2022/07/28 06:28:20;;;;;;;9.00;2.93;;;21.80;91.30;;;;;;4974646;28;20466;-63
2022/07/28 06:30:47;;;;;;;5.70;3.40;;;22.00;91.10;;;;;;4974619;28;20475;-63
2022/07/28 06:33:14;;;;;;;9.80;3.70;;;22.10;90.80;;;;;;4974230;28;20880;-63
2022/07/28 06:35:43;;;;;;;5.13;2.53;;;22.20;90.70;;;;;;4974499;28;20458;-63
2022/07/28 06:38:09;;;;;;;3.50;2.50;;;22.40;90.70;;;;;;4974660;28;20439;-63
2022/07/28 06:40:36;;;;;;;3.43;3.10;;;22.50;90.40;;;;;;4974290;28;20982;-63
2022/07/28 06:43:03;;;;;;;5.23;3.50;;;22.80;90.10;;;;;;4974224;28;20934;-63
2022/07/28 06:45:30;;;;;;;4.23;3.20;;;23.20;89.70;;;;;;4974541;28;20466;-63
2022/07/28 06:47:56;;;;;;;5.03;3.37;;;23.60;88.40;;;;;;4974408;28;20454;-63
2022/07/28 06:50:23;;;;;;;4.73;3.30;;;24.10;86.30;;;;;;4974374;28;20459;-63
2022/07/28 06:52:51;;;;;;;3.10;2.90;;;24.20;85.60;;;;;;4974308;28;20475;-63
2022/07/28 06:55:18;;;;;;;3.40;3.10;;;24.40;84.00;;;;;;4974401;28;20454;-63
2022/07/28 06:57:45;;;;;;;7.53;3.40;;;24.70;84.20;;;;;;4974512;28;20458;-63
2022/07/28 07:00:13;;;;;;;4.30;3.40;;;25.20;83.30;;;;;;4974061;28;20458;-64
2022/07/28 07:02:40;;;;;;;4.40;3.50;;;25.60;81.80;;;;;;4976592;28;20455;-63
2022/07/28 07:05:08;;;;;;;3.70;3.03;;;26.00;80.40;;;;;;4978426;28;20457;-63
2022/07/28 07:07:35;;;;;;;4.13;3.30;;;26.50;77.60;;;;;;4977933;28;20457;-63
2022/07/28 07:10:04;;;;;;;4.90;3.50;;;26.70;77.00;;;;;;4977761;28;20462;-63
2022/07/28 07:12:32;;;;;;;3.77;3.10;;;27.20;75.30;;;;;;4977752;28;20514;-63
2022/07/28 07:14:59;;;;;;;3.73;3.10;;;27.50;74.80;;;;;;4977701;28;20481;-62
2022/07/28 07:17:26;;;;;;;9.50;4.10;;;27.80;72.90;;;;;;4977922;28;20461;-62
2022/07/28 07:19:52;;;;;;;4.53;3.20;;;27.80;72.80;;;;;;4977988;28;20970;-62
2022/07/28 07:22:19;;;;;;;5.93;3.43;;;28.10;72.20;;;;;;4977419;28;21044;-62
2022/07/28 07:24:46;;;;;;;3.43;3.20;;;28.40;71.70;;;;;;4977202;28;20454;-63
2022/07/28 07:27:14;;;;;;;6.10;3.80;;;28.70;69.80;;;;;;4977556;28;20470;-62
2022/07/28 07:29:41;;;;;;;6.13;4.00;;;29.00;68.60;;;;;;4977498;28;20455;-62
2022/07/28 07:32:07;;;;;;;5.27;3.60;;;29.10;68.40;;;;;;4977303;28;20533;-62
2022/07/28 07:34:34;;;;;;;6.00;3.80;;;29.20;67.70;;;;;;4977015;28;20463;-62
2022/07/28 07:37:01;;;;;;;3.93;3.67;;;29.50;66.30;;;;;;4977313;28;20513;-62
2022/07/28 07:39:27;;;;;;;4.47;3.93;;;29.50;67.20;;;;;;4977027;28;20960;-62
2022/07/28 07:41:54;;;;;;;5.80;4.40;;;29.60;65.80;;;;;;4977295;28;20482;-62
2022/07/28 07:44:22;;;;;;;4.50;4.00;;;29.50;66.10;;;;;;4977242;28;20451;-62
2022/07/28 07:46:49;;;;;;;4.27;3.90;;;29.30;68.40;;;;;;4977442;28;20458;-62
2022/07/28 07:49:17;;;;;;;4.97;4.23;;;29.50;66.80;;;;;;4977029;28;20953;-62
2022/07/28 07:51:44;;;;;;;6.50;4.03;;;29.80;67.00;;;;;;4976978;28;20483;-63
2022/07/28 07:54:10;;;;;;;4.40;4.00;;;30.30;65.00;;;;;;4976782;28;20943;-63
2022/07/28 07:56:37;;;;;;;4.70;4.10;;;30.90;64.90;;;;;;4977181;28;20458;-63
2022/07/28 07:59:04;;;;;;;4.00;3.80;;;31.20;62.60;;;;;;4977040;28;20450;-63
2022/07/28 08:01:32;;;;;;;4.33;4.03;;;31.60;61.30;;;;;;4976961;28;20848;-63
2022/07/28 08:03:59;;;;;;;4.43;4.03;;;31.40;60.60;;;;;;4976973;28;20455;-62
2022/07/28 08:06:27;;;;;;;4.60;4.30;;;31.10;60.80;;;;;;4976745;28;20539;-62
2022/07/28 08:08:54;;;;;;;4.40;4.10;;;31.30;61.80;;;;;;4976752;28;20494;-62
2022/07/28 08:11:20;;;;;;;5.43;4.70;;;31.60;60.20;;;;;;4976693;28;20489;-63
2022/07/28 08:13:47;;;;;;;4.90;4.40;;;31.90;61.10;;;;;;4976230;28;20844;-63
2022/07/28 08:16:14;;;;;;;4.67;4.27;;;32.20;60.20;;;;;;4976385;28;20822;-62
2022/07/28 08:18:42;;;;;;;6.03;4.00;;;32.50;59.90;;;;;;4976444;28;20540;-62
2022/07/28 08:21:09;;;;;;;4.73;3.83;;;33.10;59.10;;;;;;4976387;28;20481;-63
2022/07/28 08:23:36;;;;;;;6.33;5.10;;;33.40;58.20;;;;;;4976402;28;20450;-63
2022/07/28 08:26:04;;;;;;;10.40;4.80;;;33.90;57.40;;;;;;4976418;28;20823;-63
2022/07/28 08:28:31;;;;;;;7.40;5.20;;;34.20;57.30;;;;;;4976377;28;20465;-63
2022/07/28 08:30:58;;;;;;;6.23;5.40;;;34.50;55.60;;;;;;4976275;28;20474;-64
2022/07/28 08:33:24;;;;;;;5.83;5.17;;;34.30;55.90;;;;;;4976314;28;20524;-63
2022/07/28 08:35:52;;;;;;;5.40;4.90;;;34.60;55.40;;;;;;4976107;28;20643;-63
2022/07/28 08:38:19;;;;;;;5.27;4.77;;;34.70;55.30;;;;;;4976271;28;20454;-63
2022/07/28 08:40:49;;;;;;;5.20;4.70;;;35.00;54.50;;;;;;4975967;28;20886;-63
2022/07/28 08:43:27;;;;;;;4.30;4.00;;;34.70;55.10;;;;;;4976250;28;20525;-63
2022/07/28 08:45:55;;;;;;;6.53;5.07;;;34.70;55.00;;;;;;4976196;28;20461;-64
2022/07/28 08:48:22;;;;;;;5.20;4.70;;;34.50;54.30;;;;;;4976726;28;20512;-64
2022/07/28 08:50:52;;;;;;;5.30;4.80;;;34.60;54.90;;;;;;4976033;28;20557;-64
2022/07/28 08:53:20;;;;;;;5.70;5.20;;;34.70;55.40;;;;;;4975838;28;20478;-64
2022/07/28 08:55:48;;;;;;;5.20;4.70;;;34.60;54.60;;;;;;4976018;28;20536;-65
2022/07/28 08:58:16;;;;;;;4.40;4.10;;;34.90;54.80;;;;;;4975834;28;20454;-64
2022/07/28 09:00:43;;;;;;;4.57;4.23;;;35.40;54.00;;;;;;4975758;28;20489;-64
2022/07/28 09:03:11;;;;;;;4.67;4.27;;;35.50;53.00;;;;;;4976791;28;20445;-64
2022/07/28 09:05:41;;;;;;;4.60;4.30;;;35.70;53.50;;;;;;4976578;28;20464;-64
2022/07/28 09:08:10;;;;;;;3.97;3.70;;;35.90;53.40;;;;;;4982772;28;20465;-64
2022/07/28 09:10:37;;;;;;;5.47;4.50;;;35.90;52.90;;;;;;4983063;28;20470;-64
2022/07/28 09:13:04;;;;;;;4.23;3.93;;;36.10;52.20;;;;;;4977165;28;20474;-64
2022/07/28 09:15:31;;;;;;;4.43;4.13;;;36.10;52.30;;;;;;4975824;28;20941;-70
2022/07/28 09:17:58;;;;;;;4.33;4.03;;;36.20;52.00;;;;;;4975667;28;20458;-69
2022/07/28 09:20:26;;;;;;;4.40;4.10;;;36.30;51.40;;;;;;4975503;28;20462;-70
2022/07/28 09:22:57;;;;;;;4.73;4.40;;;36.20;52.20;;;;;;4975616;28;20457;-70
2022/07/28 09:25:26;;;;;;;9.10;5.00;;;36.10;52.60;;;;;;4974635;28;20967;-70
2022/07/28 09:27:53;;;;;;;5.13;4.20;;;36.40;51.70;;;;;;4975496;28;20544;-70
2022/07/28 09:30:28;;;;;;;5.23;4.73;;;36.30;51.50;;;;;;4975823;28;20486;-69
2022/07/28 09:33:14;;;;;;;7.30;4.80;;;36.20;51.70;;;;;;4975244;28;20540;-71
2022/07/28 09:35:45;;;;;;;4.93;4.53;;;35.70;51.70;;;;;;4975408;28;20434;-69
2022/07/28 09:38:13;;;;;;;5.13;4.63;;;35.10;53.20;;;;;;4975467;28;20455;-69
2022/07/28 09:40:42;;;;;;;5.40;5.00;;;34.90;53.50;;;;;;4975324;28;20477;-70
2022/07/28 09:43:09;;;;;;;5.30;4.80;;;35.10;53.10;;;;;;4975459;28;20457;-69
2022/07/28 09:45:37;;;;;;;4.80;4.40;;;35.20;52.50;;;;;;4975652;28;20525;-69
2022/07/28 09:48:11;;;;;;;5.00;3.70;;;35.10;52.50;;;;;;4975360;28;20456;-70
2022/07/28 09:50:39;;;;;;;4.80;4.40;;;35.20;53.10;;;;;;4975075;28;20470;-70
2022/07/28 09:53:23;;;;;;;4.70;4.30;;;35.00;52.70;;;;;;4975321;28;20486;-70
2022/07/28 09:55:56;;;;;;;9.83;5.27;;;35.60;53.60;;;;;;4974851;28;20945;-70
2022/07/28 09:58:23;;;;;;;5.90;4.60;;;36.30;52.00;;;;;;4975179;28;20446;-69
2022/07/28 10:00:50;;;;;;;4.07;3.77;;;36.80;51.40;;;;;;4974669;28;20490;-69
2022/07/28 10:03:25;;;;;;;4.53;4.10;;;37.20;50.10;;;;;;4975486;28;20438;-69
2022/07/28 10:05:51;;;;;;;4.67;4.27;;;37.60;48.90;;;;;;4974846;28;20485;-69
2022/07/28 10:08:18;;;;;;;4.67;4.30;;;37.60;49.10;;;;;;4974659;28;20453;-69
2022/07/28 10:10:59;;;;;;;4.30;4.00;;;37.80;48.30;;;;;;4974898;28;20474;-68
2022/07/28 10:13:26;;;;;;;6.03;4.23;;;38.10;49.30;;;;;;4974696;28;20462;-69
2022/07/28 10:16:11;;;;;;;4.17;3.77;;;38.00;48.30;;;;;;4974821;28;20465;-70
2022/07/28 10:18:38;;;;;;;4.83;4.50;;;38.10;48.20;;;;;;4974887;28;20452;-70
2022/07/28 10:21:09;;;;;;;4.90;4.50;;;37.40;48.10;;;;;;4975012;28;20509;-70
2022/07/28 10:23:38;;;;;;;4.80;4.10;;;37.00;48.70;;;;;;4974716;28;20926;-69
2022/07/28 10:26:10;;;;;;;4.43;4.13;;;37.30;48.50;;;;;;4975123;28;20829;-70
2022/07/28 10:28:41;;;;;;;4.80;4.30;;;37.30;48.20;;;;;;4974905;28;20442;-70
2022/07/28 10:31:10;;;;;;;4.87;4.40;;;37.50;48.40;;;;;;4974712;28;20816;-70
2022/07/28 10:33:39;;;;;;;4.23;3.93;;;37.80;48.70;;;;;;4974669;28;20478;-69
2022/07/28 10:36:07;;;;;;;5.40;4.30;;;38.10;48.70;;;;;;4976844;28;20495;-69
2022/07/28 10:38:35;;;;;;;4.37;3.97;;;38.30;48.10;;;;;;4979042;28;20454;-70
2022/07/28 10:41:04;;;;;;;4.87;4.47;;;38.60;47.60;;;;;;4978694;28;20484;-70
2022/07/28 10:43:32;;;;;;;4.80;4.30;;;38.50;47.10;;;;;;4978679;28;20855;-70
2022/07/28 10:45:59;;;;;;;4.60;4.20;;;38.60;47.00;;;;;;4978440;28;20458;-70
2022/07/28 10:48:26;;;;;;;4.73;4.43;;;38.60;46.30;;;;;;4978262;28;20458;-71
2022/07/28 10:50:54;;;;;;;4.00;3.70;;;37.80;46.60;;;;;;4978708;28;20913;-70
2022/07/28 10:53:30;;;;;;;5.20;4.00;;;37.30;47.40;;;;;;4978351;28;20572;-70
2022/07/28 10:56:03;;;;;;;6.27;4.67;;;36.50;48.40;;;;;;4978545;28;20442;-70
2022/07/28 10:58:40;;;;;;;4.23;4.03;;;35.60;49.50;;;;;;4978609;28;20443;-69
2022/07/28 11:01:07;;;;;;;4.90;4.50;;;35.40;51.00;;;;;;4977929;28;20485;-70
2022/07/28 11:03:41;;;;;;;5.30;4.80;;;35.40;51.10;;;;;;4978089;28;20477;-70
2022/07/28 11:06:35;;;;;;;4.23;3.83;;;35.70;51.00;;;;;;4978993;28;20793;-69
2022/07/28 11:09:20;;;;;;;5.63;4.70;;;36.30;50.60;;;;;;4954415;28;20494;-69
2022/07/28 11:11:49;;;;;;;4.90;4.60;;;35.70;50.20;;;;;;4978181;28;20477;-70
2022/07/28 11:14:35;;;;;;;4.80;4.50;;;35.50;50.20;;;;;;4977853;28;20482;-69
2022/07/28 11:17:19;;;;;;;4.87;4.47;;;34.80;51.30;;;;;;4977953;28;20906;-70
2022/07/28 11:19:54;;;;;;;4.70;4.27;;;34.80;51.60;;;;;;4978333;28;20439;-69
2022/07/28 11:22:28;;;;;;;4.50;4.10;;;34.90;51.10;;;;;;4977894;28;20474;-70
2022/07/28 11:25:17;;;;;;;4.27;3.97;;;34.90;51.80;;;;;;4977646;28;20450;-69
2022/07/28 11:28:03;;;;;;;4.30;3.90;;;34.80;50.60;;;;;;4977782;28;20493;-69
2022/07/28 11:30:50;;;;;;;4.20;4.00;;;34.40;51.30;;;;;;4978054;28;20461;-69
2022/07/28 11:33:19;;;;;;;4.30;3.90;;;34.10;52.80;;;;;;4977652;28;20565;-64
2022/07/28 11:36:03;;;;;;;4.20;3.90;;;34.00;52.00;;;;;;4977566;28;20508;-63
2022/07/28 11:38:30;;;;;;;5.00;4.60;;;33.80;51.70;;;;;;4977444;28;20439;-63
2022/07/28 11:40:57;;;;;;;5.33;4.83;;;33.20;52.00;;;;;;4977552;28;20526;-63
2022/07/28 11:43:31;;;;;;;4.83;4.43;;;32.80;52.60;;;;;;4977129;28;21020;-63
2022/07/28 11:46:33;;;;;;;4.70;4.13;;;32.00;53.20;;;;;;4977288;28;20435;-63
2022/07/28 11:49:24;;;;;;;5.17;4.73;;;31.60;53.80;;;;;;4976740;28;20439;-63
2022/07/28 11:52:15;;;;;;;4.57;4.27;;;31.50;54.30;;;;;;4977416;28;20475;-64
2022/07/28 11:54:42;;;;;;;4.50;4.10;;;31.90;54.60;;;;;;4976978;28;20462;-64
2022/07/28 11:57:10;;;;;;;4.30;4.00;;;32.30;54.60;;;;;;4977143;28;20450;-64
2022/07/28 11:59:46;;;;;;;4.90;4.50;;;32.70;54.10;;;;;;4976652;28;20486;-64
2022/07/28 12:02:18;;;;;;;4.83;4.53;;;32.80;53.00;;;;;;4976663;28;20885;-64
2022/07/28 12:04:45;;;;;;;5.43;4.47;;;32.60;52.80;;;;;;4976767;28;20961;-63
2022/07/28 12:07:12;;;;;;;4.80;4.40;;;32.20;52.90;;;;;;4977054;28;20458;-63
2022/07/28 12:09:39;;;;;;;5.30;4.83;;;32.10;53.60;;;;;;4976846;28;20462;-63
2022/07/28 12:12:07;;;;;;;5.27;4.77;;;32.00;53.60;;;;;;4977032;28;20833;-68
2022/07/28 12:14:39;;;;;;;4.87;4.27;;;31.90;54.00;;;;;;4976850;28;20990;-68
2022/07/28 12:17:06;;;;;;;6.40;4.63;;;31.90;54.00;;;;;;4977577;28;20793;-69
2022/07/28 12:19:34;;;;;;;5.40;5.10;;;32.00;54.30;;;;;;4976535;28;20474;-69
2022/07/28 12:22:01;;;;;;;4.67;4.27;;;32.00;53.90;;;;;;4976852;28;20474;-69
2022/07/28 12:24:29;;;;;;;4.83;4.53;;;31.70;54.30;;;;;;4977083;28;20454;-70
2022/07/28 12:26:58;;;;;;;4.67;4.37;;;31.60;54.70;;;;;;4976796;28;20458;-70
2022/07/28 12:29:28;;;;;;;4.97;4.57;;;31.80;54.20;;;;;;4976497;28;20461;-70
2022/07/28 12:31:57;;;;;;;5.87;4.97;;;32.10;53.40;;;;;;4976385;28;20481;-70
2022/07/28 12:34:25;;;;;;;4.90;4.50;;;32.20;53.00;;;;;;4976125;28;20598;-70
2022/07/28 12:36:55;;;;;;;5.17;4.70;;;32.60;53.70;;;;;;4976367;28;20828;-70
2022/07/28 12:39:24;;;;;;;4.80;4.47;;;32.90;52.20;;;;;;4976346;28;20523;-70
2022/07/28 12:42:00;;;;;;;5.50;4.37;;;33.00;52.80;;;;;;4976231;28;20470;-70
2022/07/28 12:44:36;;;;;;;4.87;4.50;;;33.10;52.10;;;;;;4976605;28;20443;-69
2022/07/28 12:47:05;;;;;;;5.10;4.70;;;32.90;52.50;;;;;;4976147;28;20800;-70
2022/07/28 12:49:32;;;;;;;4.77;4.37;;;32.70;52.10;;;;;;4975710;28;20914;-70
2022/07/28 12:52:14;;;;;;;4.40;4.10;;;32.40;52.40;;;;;;4976096;28;20485;-69
2022/07/28 12:54:41;;;;;;;4.43;4.13;;;32.40;52.30;;;;;;4975946;28;20818;-70
2022/07/28 12:57:08;;;;;;;5.00;4.60;;;32.40;53.10;;;;;;4975646;28;20946;-69
2022/07/28 12:59:37;;;;;;;4.50;4.20;;;32.30;52.30;;;;;;4975387;28;20458;-69
2022/07/28 13:02:06;;;;;;;4.37;4.17;;;32.30;53.30;;;;;;4975256;28;20491;-68
2022/07/28 13:04:44;;;;;;;4.40;4.10;;;32.40;53.20;;;;;;4975426;28;20459;-69
2022/07/28 13:07:15;;;;;;;4.40;4.10;;;32.40;53.30;;;;;;4976317;28;20446;-69
2022/07/28 13:09:45;;;;;;;4.33;4.03;;;32.50;52.50;;;;;;4976212;28;20443;-70
2022/07/28 13:12:16;;;;;;;4.20;3.83;;;32.70;52.40;;;;;;4976206;28;20478;-69
2022/07/28 13:14:46;;;;;;;4.20;3.80;;;32.90;52.50;;;;;;4975894;28;20857;-69
2022/07/28 13:17:12;;;;;;;3.83;3.57;;;33.00;51.10;;;;;;4975541;28;20952;-69
2022/07/28 13:19:39;;;;;;;4.27;3.87;;;33.20;51.60;;;;;;4975744;28;20461;-70
2022/07/28 13:22:06;;;;;;;4.67;3.90;;;33.50;51.20;;;;;;4975632;28;20478;-70
2022/07/28 13:24:34;;;;;;;4.17;3.73;;;33.80;49.70;;;;;;4975468;28;20450;-69
2022/07/28 13:27:02;;;;;;;4.00;3.80;;;33.90;50.00;;;;;;4975523;28;20453;-69
2022/07/28 13:29:32;;;;;;;4.03;3.47;;;34.20;49.60;;;;;;4976706;28;20458;-69
2022/07/28 13:31:59;;;;;;;3.30;3.10;;;34.10;48.20;;;;;;4974915;28;20485;-68
2022/07/28 13:34:25;;;;;;;4.00;3.60;;;34.00;49.10;;;;;;4975354;28;20501;-69
2022/07/28 13:36:52;;;;;;;4.03;3.70;;;33.90;49.30;;;;;;4975434;28;20811;-69
2022/07/28 13:39:19;;;;;;;3.60;3.40;;;33.80;49.30;;;;;;4975239;28;20874;-69
2022/07/28 13:41:47;;;;;;;4.00;3.17;;;33.60;49.80;;;;;;4975208;28;20481;-70
2022/07/28 13:44:13;;;;;;;3.60;3.30;;;33.40;47.30;;;;;;4975340;28;20897;-69
2022/07/28 13:46:42;;;;;;;3.20;3.00;;;33.30;47.20;;;;;;4975754;28;20477;-69
2022/07/28 13:49:09;;;;;;;3.17;2.80;;;33.30;47.90;;;;;;4974889;28;20461;-69
2022/07/28 13:51:36;;;;;;;3.30;3.10;;;33.10;47.90;;;;;;4974861;28;20985;-68
2022/07/28 13:54:03;;;;;;;3.93;3.20;;;33.00;47.10;;;;;;4975036;28;20475;-69
2022/07/28 13:56:29;;;;;;;3.97;3.57;;;33.00;47.10;;;;;;4975072;28;20460;-69
2022/07/28 13:58:58;;;;;;;8.03;4.00;;;32.90;48.50;;;;;;4975044;28;20942;-66
2022/07/28 14:01:25;;;;;;;4.10;3.80;;;32.70;50.10;;;;;;4974732;28;20544;-67
2022/07/28 14:03:51;;;;;;;4.20;3.90;;;32.60;50.90;;;;;;4975431;28;20454;-68
2022/07/28 14:06:18;;;;;;;3.80;3.60;;;32.40;51.40;;;;;;4974886;28;20450;-68
2022/07/28 14:08:45;;;;;;;4.00;3.70;;;32.20;51.50;;;;;;4974854;28;20466;-68
2022/07/28 14:11:11;;;;;;;5.13;3.80;;;32.10;51.40;;;;;;4976889;28;20809;-68
2022/07/28 14:13:38;;;;;;;4.37;4.07;;;31.90;51.20;;;;;;4978985;28;20455;-68
2022/07/28 14:16:06;;;;;;;4.17;3.87;;;31.70;51.70;;;;;;4979127;28;20509;-69
2022/07/28 14:18:33;;;;;;;3.93;3.60;;;31.60;52.00;;;;;;4979213;28;20458;-67
2022/07/28 14:21:00;;;;;;;4.90;4.20;;;31.50;51.50;;;;;;4978808;28;20481;-67
2022/07/28 14:23:27;;;;;;;3.63;3.33;;;31.50;52.20;;;;;;4978920;28;20458;-68
2022/07/28 14:25:54;;;;;;;3.63;3.40;;;31.70;52.30;;;;;;4978809;28;20461;-68
2022/07/28 14:28:20;;;;;;;3.70;3.40;;;32.00;52.50;;;;;;4984363;28;20454;-68
2022/07/28 14:30:47;;;;;;;6.60;3.73;;;32.30;51.80;;;;;;4985331;28;20474;-67
2022/07/28 14:33:15;;;;;;;4.40;4.00;;;32.70;50.70;;;;;;4985113;28;20454;-68
2022/07/28 14:35:42;;;;;;;4.07;3.77;;;32.90;50.50;;;;;;4984044;28;20478;-68
2022/07/28 14:38:09;;;;;;;4.20;3.90;;;32.90;49.20;;;;;;4978826;28;20873;-67
2022/07/28 14:40:36;;;;;;;4.00;3.70;;;32.80;49.50;;;;;;4979521;28;20478;-67
2022/07/28 14:43:04;;;;;;;4.10;3.80;;;32.80;49.80;;;;;;4979430;28;20442;-68
2022/07/28 14:45:30;;;;;;;4.10;3.80;;;33.00;49.70;;;;;;4978553;28;20481;-68
2022/07/28 14:47:58;;;;;;;3.73;3.43;;;33.10;48.80;;;;;;4978057;28;20925;-68
2022/07/28 14:50:26;;;;;;;5.03;4.20;;;33.10;49.30;;;;;;4978190;28;20458;-68
2022/07/28 14:52:55;;;;;;;5.93;4.37;;;33.10;48.60;;;;;;4978356;28;20481;-68
2022/07/28 14:55:22;;;;;;;3.80;3.60;;;33.10;48.50;;;;;;4977689;28;21069;-67
2022/07/28 14:57:49;;;;;;;5.17;4.77;;;33.20;49.00;;;;;;4978093;28;20461;-68
2022/07/28 15:00:17;;;;;;;4.50;4.10;;;32.90;48.40;;;;;;4977438;28;20926;-68
2022/07/28 15:02:43;;;;;;;4.40;4.00;;;32.80;48.40;;;;;;4978768;28;20450;-68
2022/07/28 15:05:10;;;;;;;3.70;3.30;;;32.90;48.80;;;;;;4977584;28;21007;-68
2022/07/28 15:07:40;;;;;;;5.83;5.33;;;32.80;48.50;;;;;;4978041;28;20450;-68
2022/07/28 15:10:09;;;;;;;4.67;4.13;;;32.90;48.70;;;;;;4978087;28;20539;-68
2022/07/28 15:12:35;;;;;;;3.80;3.60;;;32.90;49.40;;;;;;4977843;28;20475;-68
2022/07/28 15:15:02;;;;;;;4.67;3.60;;;32.90;48.30;;;;;;4977324;28;20478;-68
2022/07/28 15:17:29;;;;;;;4.27;3.83;;;32.80;48.80;;;;;;4977528;28;20517;-68
2022/07/28 15:19:56;;;;;;;4.30;3.90;;;32.60;48.50;;;;;;4977705;28;20461;-68
2022/07/28 15:22:23;;;;;;;4.17;3.77;;;32.60;48.50;;;;;;4976550;28;20474;-68
2022/07/28 15:24:51;;;;;;;3.83;3.23;;;32.60;48.80;;;;;;4977711;28;20457;-68
2022/07/28 15:27:18;;;;;;;4.00;3.60;;;32.60;48.70;;;;;;4977495;28;20465;-68
2022/07/28 15:29:46;;;;;;;3.73;3.43;;;32.50;48.90;;;;;;4977646;28;20459;-68
2022/07/28 15:32:13;;;;;;;7.00;4.10;;;32.40;49.10;;;;;;4977427;28;20566;-68
2022/07/28 15:34:39;;;;;;;6.60;3.70;;;32.50;49.20;;;;;;4977102;28;20481;-68
2022/07/28 15:37:06;;;;;;;6.23;3.73;;;32.50;48.60;;;;;;4977500;28;20504;-68
2022/07/28 15:39:33;;;;;;;3.70;3.40;;;32.40;48.90;;;;;;4977514;28;20463;-68
2022/07/28 15:42:01;;;;;;;3.33;3.03;;;32.60;49.00;;;;;;4977485;28;20479;-67
2022/07/28 15:44:29;;;;;;;3.27;2.87;;;32.70;48.10;;;;;;4977588;28;20545;-68
2022/07/28 15:46:56;;;;;;;6.80;3.60;;;32.70;47.70;;;;;;4977745;28;20501;-67
2022/07/28 15:49:23;;;;;;;3.97;3.47;;;32.80;48.30;;;;;;4978367;28;20454;-65
2022/07/28 15:51:49;;;;;;;7.10;3.10;;;32.70;47.50;;;;;;4977196;28;20474;-65
2022/07/28 15:54:17;;;;;;;5.10;3.43;;;32.90;48.10;;;;;;4977127;28;20894;-64
2022/07/28 15:56:43;;;;;;;4.20;3.73;;;32.90;47.90;;;;;;4977515;28;20454;-70
2022/07/28 15:59:11;;;;;;;4.33;4.03;;;32.90;46.70;;;;;;4977184;28;20458;-69
2022/07/28 16:01:39;;;;;;;4.30;3.67;;;32.90;46.90;;;;;;4977300;28;20494;-69
2022/07/28 16:04:06;;;;;;;4.13;3.70;;;32.80;47.80;;;;;;4977338;28;20881;-69
2022/07/28 16:09:13;;;;;;;3.90;3.70;;;32.60;48.10;;;;;;4975841;28;20442;-69
2022/07/28 16:11:40;;;;;;;9.20;8.40;;;32.60;48.60;;;;;;4977236;28;20474;-63
2022/07/28 16:14:07;;;;;;;4.43;4.13;;;32.50;48.40;;;;;;4976960;28;20450;-68
2022/07/28 16:16:35;;;;;;;6.17;5.50;;;32.40;48.70;;;;;;4976772;28;20513;-69
2022/07/28 16:19:02;;;;;;;5.13;4.23;;;32.20;48.60;;;;;;4976450;28;20466;-69
2022/07/28 16:21:29;;;;;;;4.37;3.90;;;32.00;48.80;;;;;;4976517;28;20485;-69
2022/07/28 16:23:55;;;;;;;3.93;3.63;;;31.80;48.60;;;;;;4976531;28;20540;-69
2022/07/28 16:26:22;;;;;;;4.60;4.20;;;31.80;49.30;;;;;;4976313;28;20461;-68
2022/07/28 16:28:49;;;;;;;4.33;4.00;;;31.70;48.80;;;;;;4976579;28;20465;-67
2022/07/28 16:31:16;;;;;;;4.13;3.93;;;31.60;49.00;;;;;;4976934;28;20478;-63
2022/07/28 16:33:44;;;;;;;4.57;4.13;;;31.40;48.80;;;;;;4976540;28;20459;-69
2022/07/28 16:36:11;;;;;;;7.27;4.47;;;31.40;49.80;;;;;;4976257;28;20489;-70
2022/07/28 16:38:38;;;;;;;6.60;4.90;;;31.40;50.10;;;;;;4976138;28;20458;-69
2022/07/28 16:41:05;;;;;;;4.17;3.87;;;31.30;49.40;;;;;;4975925;28;20474;-69
2022/07/28 16:43:31;;;;;;;6.37;4.17;;;31.40;49.60;;;;;;4976564;28;20461;-70
2022/07/28 16:45:58;;;;;;;4.37;4.00;;;31.30;49.50;;;;;;4976550;28;20446;-70
2022/07/28 16:48:25;;;;;;;3.40;3.20;;;31.30;49.20;;;;;;4976479;28;20462;-69
2022/07/28 16:50:53;;;;;;;5.20;3.47;;;31.20;48.80;;;;;;4976529;28;20475;-70
2022/07/28 16:53:20;;;;;;;4.27;3.87;;;31.10;49.60;;;;;;4976073;28;20451;-70
2022/07/28 16:55:47;;;;;;;3.43;3.20;;;31.10;49.70;;;;;;4976074;28;20505;-67
2022/07/28 16:58:13;;;;;;;4.07;3.70;;;31.10;49.70;;;;;;4976262;28;20458;-66